sensor_id;sensor_type;location;lat;lon;timestamp;temperature;humidity
1021;DHT22;499;42.648;23.270;2023-04-07T00:01:00;1.70;18.80
1021;DHT22;499;42.648;23.270;2023-04-07T00:03:26;1.70;18.10
1021;DHT22;499;42.648;23.270;2023-04-07T00:05:53;1.70;18.10
1021;DHT22;499;42.648;23.270;2023-04-07T00:08:22;1.70;18.30
1021;DHT22;499;42.648;23.270;2023-04-07T00:10:49;1.70;18.10
1021;DHT22;499;42.648;23.270;2023-04-07T00:13:16;1.80;17.80
1021;DHT22;499;42.648;23.270;2023-04-07T00:15:43;1.70;18.30
1021;DHT22;499;42.648;23.270;2023-04-07T00:18:10;1.70;18.80
1021;DHT22;499;42.648;23.270;2023-04-07T00:20:37;1.70;18.80
1021;DHT22;499;42.648;23.270;2023-04-07T00:23:04;1.70;18.60
1021;DHT22;499;42.648;23.270;2023-04-07T00:25:32;1.70;17.50
1021;DHT22;499;42.648;23.270;2023-04-07T00:27:59;1.70;18.10
1021;DHT22;499;42.648;23.270;2023-04-07T00:30:26;1.70;17.40
1021;DHT22;499;42.648;23.270;2023-04-07T00:32:53;1.70;17.60
1021;DHT22;499;42.648;23.270;2023-04-07T00:35:20;1.70;17.70
1021;DHT22;499;42.648;23.270;2023-04-07T00:37:47;1.70;17.60
1021;DHT22;499;42.648;23.270;2023-04-07T00:40:14;1.70;18.80
1021;DHT22;499;42.648;23.270;2023-04-07T00:42:44;1.70;18.40
1021;DHT22;499;42.648;23.270;2023-04-07T00:45:11;1.70;17.50
1021;DHT22;499;42.648;23.270;2023-04-07T00:47:38;1.80;18.10
1021;DHT22;499;42.648;23.270;2023-04-07T00:50:06;1.70;18.20
1021;DHT22;499;42.648;23.270;2023-04-07T00:52:33;1.70;18.70
1021;DHT22;499;42.648;23.270;2023-04-07T00:55:00;1.70;17.70
1021;DHT22;499;42.648;23.270;2023-04-07T00:57:27;1.70;18.20
1021;DHT22;499;42.648;23.270;2023-04-07T00:59:56;1.60;17.70
1021;DHT22;499;42.648;23.270;2023-04-07T01:02:31;1.80;18.10
1021;DHT22;499;42.648;23.270;2023-04-07T01:05:06;1.70;18.40
1021;DHT22;499;42.648;23.270;2023-04-07T01:07:43;1.70;17.80
1021;DHT22;499;42.648;23.270;2023-04-07T01:10:22;1.70;18.10
1021;DHT22;499;42.648;23.270;2023-04-07T01:12:59;1.70;17.90
1021;DHT22;499;42.648;23.270;2023-04-07T01:15:30;1.70;18.40
1021;DHT22;499;42.648;23.270;2023-04-07T01:18:03;1.70;18.70
1021;DHT22;499;42.648;23.270;2023-04-07T01:20:34;1.70;18.60
1021;DHT22;499;42.648;23.270;2023-04-07T01:23:05;1.70;18.80
1021;DHT22;499;42.648;23.270;2023-04-07T01:25:59;1.70;18.40
1021;DHT22;499;42.648;23.270;2023-04-07T01:28:40;2.00;18.80
1021;DHT22;499;42.648;23.270;2023-04-07T01:31:12;1.80;18.20
1021;DHT22;499;42.648;23.270;2023-04-07T01:33:43;1.80;18.60
1021;DHT22;499;42.648;23.270;2023-04-07T01:36:11;1.80;18.20
1021;DHT22;499;42.648;23.270;2023-04-07T01:38:39;1.90;18.50
1021;DHT22;499;42.648;23.270;2023-04-07T01:41:08;1.90;17.60
1021;DHT22;499;42.648;23.270;2023-04-07T01:43:36;2.00;17.50
1021;DHT22;499;42.648;23.270;2023-04-07T01:46:05;2.00;17.40
1021;DHT22;499;42.648;23.270;2023-04-07T01:48:34;2.00;17.70
1021;DHT22;499;42.648;23.270;2023-04-07T01:51:03;2.10;17.60
1021;DHT22;499;42.648;23.270;2023-04-07T01:53:30;2.10;17.20
1021;DHT22;499;42.648;23.270;2023-04-07T01:55:58;2.10;17.00
1021;DHT22;499;42.648;23.270;2023-04-07T01:58:24;2.10;17.10
1021;DHT22;499;42.648;23.270;2023-04-07T02:00:52;2.00;15.90
1021;DHT22;499;42.648;23.270;2023-04-07T02:03:22;2.00;16.20
1021;DHT22;499;42.648;23.270;2023-04-07T02:05:54;2.00;16.40
1021;DHT22;499;42.648;23.270;2023-04-07T02:08:23;1.90;16.20
1021;DHT22;499;42.648;23.270;2023-04-07T02:10:54;2.00;16.30
1021;DHT22;499;42.648;23.270;2023-04-07T02:13:23;2.00;16.20
1021;DHT22;499;42.648;23.270;2023-04-07T02:15:51;2.20;16.30
1021;DHT22;499;42.648;23.270;2023-04-07T02:18:19;1.90;16.40
1021;DHT22;499;42.648;23.270;2023-04-07T02:20:47;2.00;16.50
1021;DHT22;499;42.648;23.270;2023-04-07T02:23:15;2.00;16.20
1021;DHT22;499;42.648;23.270;2023-04-07T02:25:43;2.00;16.60
1021;DHT22;499;42.648;23.270;2023-04-07T02:28:10;2.10;16.20
1021;DHT22;499;42.648;23.270;2023-04-07T02:30:37;2.30;16.10
1021;DHT22;499;42.648;23.270;2023-04-07T02:33:04;2.00;15.70
1021;DHT22;499;42.648;23.270;2023-04-07T02:35:31;2.10;15.90
1021;DHT22;499;42.648;23.270;2023-04-07T02:37:58;2.00;15.20
1021;DHT22;499;42.648;23.270;2023-04-07T02:40:26;2.10;16.40
1021;DHT22;499;42.648;23.270;2023-04-07T02:42:53;2.10;16.30
1021;DHT22;499;42.648;23.270;2023-04-07T02:45:20;2.10;16.00
1021;DHT22;499;42.648;23.270;2023-04-07T02:47:47;2.20;15.70
1021;DHT22;499;42.648;23.270;2023-04-07T02:50:14;2.20;16.30
1021;DHT22;499;42.648;23.270;2023-04-07T02:52:41;2.20;15.90
1021;DHT22;499;42.648;23.270;2023-04-07T02:55:09;2.20;16.30
1021;DHT22;499;42.648;23.270;2023-04-07T02:57:37;2.20;16.40
1021;DHT22;499;42.648;23.270;2023-04-07T03:00:05;2.30;16.20
1021;DHT22;499;42.648;23.270;2023-04-07T03:02:32;2.30;15.70
1021;DHT22;499;42.648;23.270;2023-04-07T03:04:59;2.30;15.40
1021;DHT22;499;42.648;23.270;2023-04-07T03:07:28;2.30;15.40
1021;DHT22;499;42.648;23.270;2023-04-07T03:09:56;2.30;15.50
1021;DHT22;499;42.648;23.270;2023-04-07T03:12:23;2.40;15.90
1021;DHT22;499;42.648;23.270;2023-04-07T03:14:51;2.40;15.90
1021;DHT22;499;42.648;23.270;2023-04-07T03:17:18;2.40;15.90
1021;DHT22;499;42.648;23.270;2023-04-07T03:19:45;2.60;15.50
1021;DHT22;499;42.648;23.270;2023-04-07T03:22:12;2.50;16.10
1021;DHT22;499;42.648;23.270;2023-04-07T03:24:39;2.40;15.40
1021;DHT22;499;42.648;23.270;2023-04-07T03:27:06;2.40;15.80
1021;DHT22;499;42.648;23.270;2023-04-07T03:29:33;2.40;16.60
1021;DHT22;499;42.648;23.270;2023-04-07T03:32:02;2.40;16.10
1021;DHT22;499;42.648;23.270;2023-04-07T03:34:29;2.30;16.10
1021;DHT22;499;42.648;23.270;2023-04-07T03:36:56;2.40;16.20
1021;DHT22;499;42.648;23.270;2023-04-07T03:39:23;2.30;16.40
1021;DHT22;499;42.648;23.270;2023-04-07T03:41:50;2.20;16.20
1021;DHT22;499;42.648;23.270;2023-04-07T03:44:17;2.10;16.30
1021;DHT22;499;42.648;23.270;2023-04-07T03:46:44;2.10;16.70
1021;DHT22;499;42.648;23.270;2023-04-07T03:49:14;2.00;17.10
1021;DHT22;499;42.648;23.270;2023-04-07T03:51:41;2.00;17.20
1021;DHT22;499;42.648;23.270;2023-04-07T03:54:08;2.00;17.50
1021;DHT22;499;42.648;23.270;2023-04-07T03:56:35;2.20;17.50
1021;DHT22;499;42.648;23.270;2023-04-07T03:59:02;1.90;17.50
1021;DHT22;499;42.648;23.270;2023-04-07T04:01:29;2.00;17.80
1021;DHT22;499;42.648;23.270;2023-04-07T04:03:57;1.90;17.70
1021;DHT22;499;42.648;23.270;2023-04-07T04:06:25;1.80;17.70
1021;DHT22;499;42.648;23.270;2023-04-07T04:08:52;2.20;18.20
1021;DHT22;499;42.648;23.270;2023-04-07T04:11:19;1.90;17.90
1021;DHT22;499;42.648;23.270;2023-04-07T04:13:46;1.90;17.30
1021;DHT22;499;42.648;23.270;2023-04-07T04:16:13;2.10;17.90
1021;DHT22;499;42.648;23.270;2023-04-07T04:18:40;2.00;17.10
1021;DHT22;499;42.648;23.270;2023-04-07T04:21:08;2.00;17.30
1021;DHT22;499;42.648;23.270;2023-04-07T04:23:36;2.10;17.20
1021;DHT22;499;42.648;23.270;2023-04-07T04:26:03;2.40;17.40
1021;DHT22;499;42.648;23.270;2023-04-07T04:28:30;2.20;17.20
1021;DHT22;499;42.648;23.270;2023-04-07T04:30:57;2.20;17.30
1021;DHT22;499;42.648;23.270;2023-04-07T04:33:24;2.50;17.30
1021;DHT22;499;42.648;23.270;2023-04-07T04:35:51;2.30;17.60
1021;DHT22;499;42.648;23.270;2023-04-07T04:38:18;2.30;17.30
1021;DHT22;499;42.648;23.270;2023-04-07T04:40:47;2.30;16.80
1021;DHT22;499;42.648;23.270;2023-04-07T04:43:14;2.30;16.60
1021;DHT22;499;42.648;23.270;2023-04-07T04:45:41;2.30;16.80
1021;DHT22;499;42.648;23.270;2023-04-07T04:48:08;2.40;16.90
1021;DHT22;499;42.648;23.270;2023-04-07T04:50:35;2.50;16.80
1021;DHT22;499;42.648;23.270;2023-04-07T04:53:02;2.50;16.50
1021;DHT22;499;42.648;23.270;2023-04-07T04:55:29;2.50;16.40
1021;DHT22;499;42.648;23.270;2023-04-07T04:57:58;2.50;16.20
1021;DHT22;499;42.648;23.270;2023-04-07T05:00:25;2.60;16.30
1021;DHT22;499;42.648;23.270;2023-04-07T05:02:52;2.70;15.90
1021;DHT22;499;42.648;23.270;2023-04-07T05:05:19;2.80;15.70
1021;DHT22;499;42.648;23.270;2023-04-07T05:07:45;3.00;15.80
1021;DHT22;499;42.648;23.270;2023-04-07T05:10:12;3.10;15.80
1021;DHT22;499;42.648;23.270;2023-04-07T05:12:40;3.20;15.90
1021;DHT22;499;42.648;23.270;2023-04-07T05:15:09;3.30;15.20
1021;DHT22;499;42.648;23.270;2023-04-07T05:17:37;3.20;14.90
1021;DHT22;499;42.648;23.270;2023-04-07T05:20:05;3.30;15.10
1021;DHT22;499;42.648;23.270;2023-04-07T05:22:32;3.30;14.40
1021;DHT22;499;42.648;23.270;2023-04-07T05:24:59;3.40;14.80
1021;DHT22;499;42.648;23.270;2023-04-07T05:27:26;3.50;14.60
1021;DHT22;499;42.648;23.270;2023-04-07T05:29:53;3.50;14.30
1021;DHT22;499;42.648;23.270;2023-04-07T05:32:21;3.60;14.40
1021;DHT22;499;42.648;23.270;2023-04-07T05:34:48;3.60;14.80
1021;DHT22;499;42.648;23.270;2023-04-07T05:37:15;3.80;14.50
1021;DHT22;499;42.648;23.270;2023-04-07T05:39:42;3.90;14.20
1021;DHT22;499;42.648;23.270;2023-04-07T05:42:09;3.80;13.70
1021;DHT22;499;42.648;23.270;2023-04-07T05:44:36;3.80;14.20
1021;DHT22;499;42.648;23.270;2023-04-07T05:47:03;3.90;14.20
1021;DHT22;499;42.648;23.270;2023-04-07T05:49:35;3.80;13.50
1021;DHT22;499;42.648;23.270;2023-04-07T05:52:02;3.90;14.40
1021;DHT22;499;42.648;23.270;2023-04-07T05:54:30;4.00;14.70
1021;DHT22;499;42.648;23.270;2023-04-07T05:56:57;3.70;13.90
1021;DHT22;499;42.648;23.270;2023-04-07T05:59:24;3.80;13.90
1021;DHT22;499;42.648;23.270;2023-04-07T06:01:51;3.70;14.10
1021;DHT22;499;42.648;23.270;2023-04-07T06:04:18;3.70;14.00
1021;DHT22;499;42.648;23.270;2023-04-07T06:06:47;3.60;14.20
1021;DHT22;499;42.648;23.270;2023-04-07T06:09:13;3.60;13.90
1021;DHT22;499;42.648;23.270;2023-04-07T06:11:40;3.60;14.30
1021;DHT22;499;42.648;23.270;2023-04-07T06:14:08;3.70;14.00
1021;DHT22;499;42.648;23.270;2023-04-07T06:16:35;3.50;14.60
1021;DHT22;499;42.648;23.270;2023-04-07T06:19:02;3.60;14.10
1021;DHT22;499;42.648;23.270;2023-04-07T06:21:29;3.60;14.30
1021;DHT22;499;42.648;23.270;2023-04-07T06:23:57;3.80;14.00
1021;DHT22;499;42.648;23.270;2023-04-07T06:26:24;3.90;13.80
1021;DHT22;499;42.648;23.270;2023-04-07T06:28:51;4.20;15.10
1021;DHT22;499;42.648;23.270;2023-04-07T06:31:18;4.30;13.50
1021;DHT22;499;42.648;23.270;2023-04-07T06:33:45;4.40;13.30
1021;DHT22;499;42.648;23.270;2023-04-07T06:36:13;4.40;13.40
1021;DHT22;499;42.648;23.270;2023-04-07T06:38:40;4.50;13.20
1021;DHT22;499;42.648;23.270;2023-04-07T06:41:08;4.30;12.90
1021;DHT22;499;42.648;23.270;2023-04-07T06:43:41;4.30;13.70
1021;DHT22;499;42.648;23.270;2023-04-07T06:46:08;4.40;13.30
1021;DHT22;499;42.648;23.270;2023-04-07T06:48:36;4.20;12.60
1021;DHT22;499;42.648;23.270;2023-04-07T06:51:03;4.20;13.50
1021;DHT22;499;42.648;23.270;2023-04-07T06:53:30;4.30;13.60
1021;DHT22;499;42.648;23.270;2023-04-07T06:56:04;4.30;13.40
1021;DHT22;499;42.648;23.270;2023-04-07T06:58:33;4.50;13.20
1021;DHT22;499;42.648;23.270;2023-04-07T07:01:00;4.70;12.90
1021;DHT22;499;42.648;23.270;2023-04-07T07:03:27;4.90;12.30
1021;DHT22;499;42.648;23.270;2023-04-07T07:05:56;4.90;12.00
1021;DHT22;499;42.648;23.270;2023-04-07T07:08:23;4.70;12.10
1021;DHT22;499;42.648;23.270;2023-04-07T07:10:50;4.80;11.90
1021;DHT22;499;42.648;23.270;2023-04-07T07:13:18;4.90;12.60
1021;DHT22;499;42.648;23.270;2023-04-07T07:15:49;4.90;11.80
1021;DHT22;499;42.648;23.270;2023-04-07T07:18:16;5.10;11.60
1021;DHT22;499;42.648;23.270;2023-04-07T07:20:43;4.90;12.00
1021;DHT22;499;42.648;23.270;2023-04-07T07:23:10;5.20;12.30
1021;DHT22;499;42.648;23.270;2023-04-07T07:25:37;5.40;11.70
1021;DHT22;499;42.648;23.270;2023-04-07T07:28:04;5.00;10.60
1021;DHT22;499;42.648;23.270;2023-04-07T07:30:31;5.20;13.20
1021;DHT22;499;42.648;23.270;2023-04-07T07:33:00;5.40;11.70
1021;DHT22;499;42.648;23.270;2023-04-07T07:35:27;5.40;12.10
1021;DHT22;499;42.648;23.270;2023-04-07T07:37:54;5.70;11.70
1021;DHT22;499;42.648;23.270;2023-04-07T07:40:21;5.90;10.50
1021;DHT22;499;42.648;23.270;2023-04-07T07:42:48;6.30;10.10
1021;DHT22;499;42.648;23.270;2023-04-07T07:45:15;6.10;9.80
1021;DHT22;499;42.648;23.270;2023-04-07T07:47:44;6.20;9.90
1021;DHT22;499;42.648;23.270;2023-04-07T07:50:12;6.50;10.00
1021;DHT22;499;42.648;23.270;2023-04-07T07:52:39;6.30;9.90
1021;DHT22;499;42.648;23.270;2023-04-07T07:55:07;6.00;9.70
1021;DHT22;499;42.648;23.270;2023-04-07T07:57:34;6.30;9.90
1021;DHT22;499;42.648;23.270;2023-04-07T08:00:01;6.50;10.10
1021;DHT22;499;42.648;23.270;2023-04-07T08:02:28;6.90;10.30
1021;DHT22;499;42.648;23.270;2023-04-07T08:04:58;6.70;8.90
1021;DHT22;499;42.648;23.270;2023-04-07T08:07:27;6.40;10.00
1021;DHT22;499;42.648;23.270;2023-04-07T08:09:54;6.00;10.40
1021;DHT22;499;42.648;23.270;2023-04-07T08:12:21;6.00;10.20
1021;DHT22;499;42.648;23.270;2023-04-07T08:14:48;6.30;10.80
1021;DHT22;499;42.648;23.270;2023-04-07T08:17:15;6.40;9.10
1021;DHT22;499;42.648;23.270;2023-04-07T08:19:42;6.60;10.10
1021;DHT22;499;42.648;23.270;2023-04-07T08:22:10;6.70;8.60
1021;DHT22;499;42.648;23.270;2023-04-07T08:24:38;6.80;10.00
1021;DHT22;499;42.648;23.270;2023-04-07T08:27:05;6.90;8.90
1021;DHT22;499;42.648;23.270;2023-04-07T08:29:32;6.90;9.20
1021;DHT22;499;42.648;23.270;2023-04-07T08:31:59;6.60;9.60
1021;DHT22;499;42.648;23.270;2023-04-07T08:34:26;6.70;10.10
1021;DHT22;499;42.648;23.270;2023-04-07T08:36:53;6.40;9.30
1021;DHT22;499;42.648;23.270;2023-04-07T08:39:20;6.30;9.90
1021;DHT22;499;42.648;23.270;2023-04-07T08:41:52;6.30;10.40
1021;DHT22;499;42.648;23.270;2023-04-07T08:44:21;6.60;10.10
1021;DHT22;499;42.648;23.270;2023-04-07T08:46:50;6.80;10.20
1021;DHT22;499;42.648;23.270;2023-04-07T08:49:19;7.00;10.40
1021;DHT22;499;42.648;23.270;2023-04-07T08:51:47;7.10;9.00
1021;DHT22;499;42.648;23.270;2023-04-07T08:54:16;7.00;10.30
1021;DHT22;499;42.648;23.270;2023-04-07T08:56:46;7.10;8.90
1021;DHT22;499;42.648;23.270;2023-04-07T08:59:15;7.10;9.40
1021;DHT22;499;42.648;23.270;2023-04-07T09:01:43;7.10;8.90
1021;DHT22;499;42.648;23.270;2023-04-07T09:04:11;7.20;9.70
1021;DHT22;499;42.648;23.270;2023-04-07T09:06:38;7.70;9.40
1021;DHT22;499;42.648;23.270;2023-04-07T09:09:05;7.90;8.70
1021;DHT22;499;42.648;23.270;2023-04-07T09:11:34;7.80;7.80
1021;DHT22;499;42.648;23.270;2023-04-07T09:14:02;7.60;8.20
1021;DHT22;499;42.648;23.270;2023-04-07T09:16:30;7.70;8.70
1021;DHT22;499;42.648;23.270;2023-04-07T09:18:58;8.00;7.50
1021;DHT22;499;42.648;23.270;2023-04-07T09:21:25;8.10;7.60
1021;DHT22;499;42.648;23.270;2023-04-07T09:23:52;7.90;8.10
1021;DHT22;499;42.648;23.270;2023-04-07T09:26:21;7.60;7.20
1021;DHT22;499;42.648;23.270;2023-04-07T09:28:52;7.70;8.50
1021;DHT22;499;42.648;23.270;2023-04-07T09:31:19;7.60;8.40
1021;DHT22;499;42.648;23.270;2023-04-07T09:33:48;7.60;7.70
1021;DHT22;499;42.648;23.270;2023-04-07T09:36:16;7.90;7.90
1021;DHT22;499;42.648;23.270;2023-04-07T09:38:44;7.80;8.20
1021;DHT22;499;42.648;23.270;2023-04-07T09:41:12;7.80;8.60
1021;DHT22;499;42.648;23.270;2023-04-07T09:43:40;7.90;9.00
1021;DHT22;499;42.648;23.270;2023-04-07T09:46:11;7.70;8.30
1021;DHT22;499;42.648;23.270;2023-04-07T09:48:38;7.70;8.40
1021;DHT22;499;42.648;23.270;2023-04-07T09:51:08;7.70;9.30
1021;DHT22;499;42.648;23.270;2023-04-07T09:53:43;7.80;9.00
1021;DHT22;499;42.648;23.270;2023-04-07T09:56:11;7.70;8.70
1021;DHT22;499;42.648;23.270;2023-04-07T09:58:39;7.60;8.60
1021;DHT22;499;42.648;23.270;2023-04-07T10:01:07;7.50;8.30
1021;DHT22;499;42.648;23.270;2023-04-07T10:03:35;7.90;9.30
1021;DHT22;499;42.648;23.270;2023-04-07T10:06:03;8.10;9.70
1021;DHT22;499;42.648;23.270;2023-04-07T10:08:34;8.00;7.40
1021;DHT22;499;42.648;23.270;2023-04-07T10:11:02;8.20;8.30
1021;DHT22;499;42.648;23.270;2023-04-07T10:13:29;8.30;7.50
1021;DHT22;499;42.648;23.270;2023-04-07T10:15:57;7.90;7.00
1021;DHT22;499;42.648;23.270;2023-04-07T10:18:28;7.90;9.30
1021;DHT22;499;42.648;23.270;2023-04-07T10:20:56;8.00;7.40
1021;DHT22;499;42.648;23.270;2023-04-07T10:23:27;7.90;8.60
1021;DHT22;499;42.648;23.270;2023-04-07T10:26:00;7.80;8.50
1021;DHT22;499;42.648;23.270;2023-04-07T10:28:30;8.00;8.80
1021;DHT22;499;42.648;23.270;2023-04-07T10:30:57;8.20;8.60
1021;DHT22;499;42.648;23.270;2023-04-07T10:33:50;8.20;8.40
1021;DHT22;499;42.648;23.270;2023-04-07T10:36:18;8.40;6.80
1021;DHT22;499;42.648;23.270;2023-04-07T10:39:22;8.50;7.60
1021;DHT22;499;42.648;23.270;2023-04-07T10:41:50;8.20;7.00
1021;DHT22;499;42.648;23.270;2023-04-07T10:47:25;8.40;7.60
1021;DHT22;499;42.648;23.270;2023-04-07T10:50:14;8.10;8.30
1021;DHT22;499;42.648;23.270;2023-04-07T10:52:42;8.40;8.40
1021;DHT22;499;42.648;23.270;2023-04-07T10:55:30;8.40;7.90
1021;DHT22;499;42.648;23.270;2023-04-07T10:58:15;8.00;7.10
1021;DHT22;499;42.648;23.270;2023-04-07T11:01:19;8.00;7.60
1021;DHT22;499;42.648;23.270;2023-04-07T11:03:57;8.10;10.10
1021;DHT22;499;42.648;23.270;2023-04-07T11:06:24;8.00;11.00
1021;DHT22;499;42.648;23.270;2023-04-07T11:08:52;8.10;11.60
1021;DHT22;499;42.648;23.270;2023-04-07T11:11:37;8.00;11.00
1021;DHT22;499;42.648;23.270;2023-04-07T11:14:06;7.80;12.30
1021;DHT22;499;42.648;23.270;2023-04-07T11:16:37;7.70;10.40
1021;DHT22;499;42.648;23.270;2023-04-07T11:19:05;7.80;10.90
1021;DHT22;499;42.648;23.270;2023-04-07T11:21:32;7.70;9.60
1021;DHT22;499;42.648;23.270;2023-04-07T11:23:59;7.70;9.90
1021;DHT22;499;42.648;23.270;2023-04-07T11:26:26;7.80;9.80
1021;DHT22;499;42.648;23.270;2023-04-07T11:28:55;7.80;9.10
1021;DHT22;499;42.648;23.270;2023-04-07T11:31:25;7.80;9.30
1021;DHT22;499;42.648;23.270;2023-04-07T11:33:54;7.40;9.10
1021;DHT22;499;42.648;23.270;2023-04-07T11:36:28;7.40;9.60
1021;DHT22;499;42.648;23.270;2023-04-07T11:38:57;7.50;10.20
1021;DHT22;499;42.648;23.270;2023-04-07T11:41:25;7.60;9.30
1021;DHT22;499;42.648;23.270;2023-04-07T11:44:06;7.90;10.10
1021;DHT22;499;42.648;23.270;2023-04-07T11:46:36;8.40;9.50
1021;DHT22;499;42.648;23.270;2023-04-07T11:49:11;8.50;9.60
1021;DHT22;499;42.648;23.270;2023-04-07T11:51:38;8.50;8.10
1021;DHT22;499;42.648;23.270;2023-04-07T11:54:05;8.60;8.30
1021;DHT22;499;42.648;23.270;2023-04-07T11:56:43;8.40;8.50
1021;DHT22;499;42.648;23.270;2023-04-07T11:59:18;7.90;8.80
1021;DHT22;499;42.648;23.270;2023-04-07T12:01:49;7.90;10.90
1021;DHT22;499;42.648;23.270;2023-04-07T12:04:17;8.00;12.40
1021;DHT22;499;42.648;23.270;2023-04-07T12:06:45;8.10;13.10
1021;DHT22;499;42.648;23.270;2023-04-07T12:09:27;8.10;12.70
1021;DHT22;499;42.648;23.270;2023-04-07T12:11:55;8.00;12.40
1021;DHT22;499;42.648;23.270;2023-04-07T12:14:23;8.10;12.80
1021;DHT22;499;42.648;23.270;2023-04-07T12:16:51;7.70;12.60
1021;DHT22;499;42.648;23.270;2023-04-07T12:19:21;7.40;13.70
1021;DHT22;499;42.648;23.270;2023-04-07T12:21:48;7.60;13.70
1021;DHT22;499;42.648;23.270;2023-04-07T12:24:15;7.70;12.90
1021;DHT22;499;42.648;23.270;2023-04-07T12:26:42;7.70;13.00
1021;DHT22;499;42.648;23.270;2023-04-07T12:29:09;7.80;12.70
1021;DHT22;499;42.648;23.270;2023-04-07T12:31:36;7.90;12.60
1021;DHT22;499;42.648;23.270;2023-04-07T12:34:04;8.00;13.30
1021;DHT22;499;42.648;23.270;2023-04-07T12:36:32;8.10;13.20
1021;DHT22;499;42.648;23.270;2023-04-07T12:38:59;7.80;13.10
1021;DHT22;499;42.648;23.270;2023-04-07T12:41:26;7.80;12.90
1021;DHT22;499;42.648;23.270;2023-04-07T12:43:53;7.80;13.10
1021;DHT22;499;42.648;23.270;2023-04-07T12:46:21;7.70;13.10
1021;DHT22;499;42.648;23.270;2023-04-07T12:48:47;7.40;13.70
1021;DHT22;499;42.648;23.270;2023-04-07T12:51:17;7.40;13.50
1021;DHT22;499;42.648;23.270;2023-04-07T12:53:44;7.40;14.10
1021;DHT22;499;42.648;23.270;2023-04-07T12:56:12;7.60;13.90
1021;DHT22;499;42.648;23.270;2023-04-07T12:58:39;7.70;13.40
1021;DHT22;499;42.648;23.270;2023-04-07T13:01:06;7.80;13.10
1021;DHT22;499;42.648;23.270;2023-04-07T13:03:34;7.80;13.50
1021;DHT22;499;42.648;23.270;2023-04-07T13:06:01;7.90;13.40
1021;DHT22;499;42.648;23.270;2023-04-07T13:08:30;7.80;13.30
1021;DHT22;499;42.648;23.270;2023-04-07T13:10:57;7.90;13.60
1021;DHT22;499;42.648;23.270;2023-04-07T13:13:24;8.00;13.30
1021;DHT22;499;42.648;23.270;2023-04-07T13:15:51;8.00;13.00
1021;DHT22;499;42.648;23.270;2023-04-07T13:18:19;7.70;13.70
1021;DHT22;499;42.648;23.270;2023-04-07T13:20:46;7.60;14.10
1021;DHT22;499;42.648;23.270;2023-04-07T13:23:13;7.60;13.90
1021;DHT22;499;42.648;23.270;2023-04-07T13:25:42;7.70;14.40
1021;DHT22;499;42.648;23.270;2023-04-07T13:28:09;7.50;14.30
1021;DHT22;499;42.648;23.270;2023-04-07T13:30:36;7.60;14.40
1021;DHT22;499;42.648;23.270;2023-04-07T13:33:03;7.70;14.40
1021;DHT22;499;42.648;23.270;2023-04-07T13:35:30;7.80;14.30
1021;DHT22;499;42.648;23.270;2023-04-07T13:38:00;7.40;14.40
1021;DHT22;499;42.648;23.270;2023-04-07T13:40:27;7.70;14.40
1021;DHT22;499;42.648;23.270;2023-04-07T13:42:56;7.60;14.60
1021;DHT22;499;42.648;23.270;2023-04-07T13:45:25;7.70;14.70
1021;DHT22;499;42.648;23.270;2023-04-07T13:47:52;7.80;15.50
1021;DHT22;499;42.648;23.270;2023-04-07T13:50:19;7.90;14.20
1021;DHT22;499;42.648;23.270;2023-04-07T13:52:46;7.90;14.50
1021;DHT22;499;42.648;23.270;2023-04-07T13:55:13;7.80;14.30
1021;DHT22;499;42.648;23.270;2023-04-07T13:57:41;7.70;15.00
1021;DHT22;499;42.648;23.270;2023-04-07T14:00:11;7.50;15.60
1021;DHT22;499;42.648;23.270;2023-04-07T14:02:38;7.30;16.00
1021;DHT22;499;42.648;23.270;2023-04-07T14:05:06;7.10;16.20
1021;DHT22;499;42.648;23.270;2023-04-07T14:07:33;7.20;15.90
1021;DHT22;499;42.648;23.270;2023-04-07T14:10:00;7.20;16.60
1021;DHT22;499;42.648;23.270;2023-04-07T14:12:27;7.20;16.60
1021;DHT22;499;42.648;23.270;2023-04-07T14:14:54;7.20;16.50
1021;DHT22;499;42.648;23.270;2023-04-07T14:17:23;7.10;16.90
1021;DHT22;499;42.648;23.270;2023-04-07T14:19:50;7.10;17.70
1021;DHT22;499;42.648;23.270;2023-04-07T14:22:17;7.00;17.20
1021;DHT22;499;42.648;23.270;2023-04-07T14:24:44;7.00;17.90
1021;DHT22;499;42.648;23.270;2023-04-07T14:27:11;6.70;18.10
1021;DHT22;499;42.648;23.270;2023-04-07T14:29:38;6.80;18.20
1021;DHT22;499;42.648;23.270;2023-04-07T14:32:05;6.80;18.20
1021;DHT22;499;42.648;23.270;2023-04-07T14:34:34;6.80;18.10
1021;DHT22;499;42.648;23.270;2023-04-07T14:37:01;6.50;18.70
1021;DHT22;499;42.648;23.270;2023-04-07T14:39:28;6.50;19.00
1021;DHT22;499;42.648;23.270;2023-04-07T14:41:55;6.50;19.00
1021;DHT22;499;42.648;23.270;2023-04-07T14:44:22;6.50;19.40
1021;DHT22;499;42.648;23.270;2023-04-07T14:46:49;6.40;19.70
1021;DHT22;499;42.648;23.270;2023-04-07T14:49:16;6.30;20.10
1021;DHT22;499;42.648;23.270;2023-04-07T14:51:44;6.30;19.70
1021;DHT22;499;42.648;23.270;2023-04-07T14:54:11;6.20;20.30
1021;DHT22;499;42.648;23.270;2023-04-07T14:56:38;6.00;20.70
1021;DHT22;499;42.648;23.270;2023-04-07T14:59:05;6.00;20.90
1021;DHT22;499;42.648;23.270;2023-04-07T15:01:33;6.00;21.00
1021;DHT22;499;42.648;23.270;2023-04-07T15:04:00;5.90;21.50
1021;DHT22;499;42.648;23.270;2023-04-07T15:06:27;5.90;22.00
1021;DHT22;499;42.648;23.270;2023-04-07T15:08:55;5.80;22.20
1021;DHT22;499;42.648;23.270;2023-04-07T15:11:22;5.70;22.20
1021;DHT22;499;42.648;23.270;2023-04-07T15:13:49;5.70;22.00
1021;DHT22;499;42.648;23.270;2023-04-07T15:16:16;5.80;22.10
1021;DHT22;499;42.648;23.270;2023-04-07T15:18:44;5.80;22.40
1021;DHT22;499;42.648;23.270;2023-04-07T15:21:12;5.80;22.70
1021;DHT22;499;42.648;23.270;2023-04-07T15:23:39;5.90;22.60
1021;DHT22;499;42.648;23.270;2023-04-07T15:26:09;6.00;22.60
1021;DHT22;499;42.648;23.270;2023-04-07T15:28:36;6.00;22.40
1021;DHT22;499;42.648;23.270;2023-04-07T15:31:04;6.00;22.20
1021;DHT22;499;42.648;23.270;2023-04-07T15:33:33;6.00;22.40
1021;DHT22;499;42.648;23.270;2023-04-07T15:36:00;5.90;21.50
1021;DHT22;499;42.648;23.270;2023-04-07T15:38:27;5.80;21.80
1021;DHT22;499;42.648;23.270;2023-04-07T15:40:54;5.80;22.20
1021;DHT22;499;42.648;23.270;2023-04-07T15:43:23;5.70;22.80
1021;DHT22;499;42.648;23.270;2023-04-07T15:45:52;5.70;23.30
1021;DHT22;499;42.648;23.270;2023-04-07T15:48:20;5.60;23.40
1021;DHT22;499;42.648;23.270;2023-04-07T15:50:47;5.60;23.50
1021;DHT22;499;42.648;23.270;2023-04-07T15:53:14;5.60;23.90
1021;DHT22;499;42.648;23.270;2023-04-07T15:55:41;5.60;24.50
1021;DHT22;499;42.648;23.270;2023-04-07T15:58:08;5.50;24.40
1021;DHT22;499;42.648;23.270;2023-04-07T16:00:38;5.60;24.30
1021;DHT22;499;42.648;23.270;2023-04-07T16:03:05;5.60;24.20
1021;DHT22;499;42.648;23.270;2023-04-07T16:05:32;5.50;24.20
1021;DHT22;499;42.648;23.270;2023-04-07T16:07:59;5.60;24.70
1021;DHT22;499;42.648;23.270;2023-04-07T16:10:26;5.60;24.40
1021;DHT22;499;42.648;23.270;2023-04-07T16:12:53;5.60;24.20
1021;DHT22;499;42.648;23.270;2023-04-07T16:15:20;5.50;24.50
1021;DHT22;499;42.648;23.270;2023-04-07T16:17:49;5.50;24.50
1021;DHT22;499;42.648;23.270;2023-04-07T16:20:16;5.40;24.20
1021;DHT22;499;42.648;23.270;2023-04-07T16:22:44;5.40;24.90
1021;DHT22;499;42.648;23.270;2023-04-07T16:25:13;5.50;25.00
1021;DHT22;499;42.648;23.270;2023-04-07T16:27:40;5.30;24.30
1021;DHT22;499;42.648;23.270;2023-04-07T16:30:10;5.40;24.60
1021;DHT22;499;42.648;23.270;2023-04-07T16:32:39;5.30;24.30